createdAt,value
2018-04-11T00:02:26.102Z,4.70
2018-04-11T00:04:54.562Z,4.70
2018-04-11T00:07:22.187Z,4.70
2018-04-11T00:09:49.766Z,4.70
2018-04-11T00:12:17.380Z,4.70
2018-04-11T00:14:45.703Z,4.70
2018-04-11T00:17:13.315Z,4.60
2018-04-11T00:19:40.917Z,4.70
2018-04-11T00:22:08.541Z,4.80
2018-04-11T00:24:36.174Z,5.00
2018-04-11T00:27:03.736Z,5.10
2018-04-11T00:29:31.351Z,5.20
2018-04-11T00:31:58.911Z,5.30
2018-04-11T00:34:26.502Z,5.40
2018-04-11T00:36:54.115Z,5.60
2018-04-11T00:39:21.748Z,5.60
2018-04-11T00:47:46.049Z,6.10
2018-04-11T00:50:13.701Z,6.20
2018-04-11T00:52:41.319Z,6.20
2018-04-11T00:55:08.899Z,6.20
2018-04-11T00:57:36.499Z,6.10
2018-04-11T01:00:04.109Z,6.10
2018-04-11T01:02:31.748Z,6.20
2018-04-11T01:04:59.309Z,6.30
2018-04-11T01:07:26.929Z,6.20
2018-04-11T01:09:54.590Z,6.20
2018-04-11T01:12:22.210Z,6.30
2018-04-11T01:14:49.813Z,6.10
2018-04-11T01:17:17.425Z,6.00
2018-04-11T01:19:44.990Z,5.90
2018-04-11T01:22:12.646Z,5.70
2018-04-11T01:24:40.213Z,5.70
2018-04-11T01:27:07.834Z,5.60
2018-04-11T01:29:36.166Z,5.40
2018-04-11T01:32:03.773Z,5.30
2018-04-11T01:34:32.113Z,5.20
2018-04-11T01:36:59.725Z,5.10
2018-04-11T01:39:27.299Z,5.10
2018-04-11T01:41:54.950Z,5.10
2018-04-11T01:44:22.521Z,5.10
2018-04-11T01:46:50.125Z,4.90
2018-04-11T01:49:17.760Z,4.70
2018-04-11T01:51:45.397Z,4.70
2018-04-11T01:54:12.970Z,4.70
2018-04-11T01:59:36.594Z,4.60
2018-04-11T02:02:04.233Z,4.60
2018-04-11T02:04:31.837Z,4.70
2018-04-11T02:07:00.177Z,4.50
2018-04-11T02:09:27.782Z,4.50
2018-04-11T02:11:56.135Z,4.60
2018-04-11T02:14:23.721Z,4.60
2018-04-11T02:16:52.086Z,4.40
2018-04-11T02:19:19.722Z,4.40
2018-04-11T02:21:47.298Z,4.30
2018-04-11T02:24:14.909Z,4.30
2018-04-11T02:26:42.479Z,4.20
2018-04-11T02:29:10.833Z,4.20
2018-04-11T02:31:38.431Z,4.20
2018-04-11T02:34:06.057Z,4.10
2018-04-11T02:36:33.684Z,4.20
2018-04-11T02:39:01.314Z,4.10
2018-04-11T02:41:28.916Z,4.10
2018-04-11T02:43:57.269Z,4.00
2018-04-11T02:46:24.869Z,4.00
2018-04-11T02:48:53.270Z,4.00
2018-04-11T02:51:20.902Z,4.00
2018-04-11T02:53:49.258Z,4.10
2018-04-11T02:56:16.868Z,4.10
2018-04-11T02:58:44.478Z,4.10
2018-04-11T03:01:12.146Z,4.00
2018-04-11T03:03:42.506Z,3.80
2018-04-11T03:06:10.127Z,3.80
2018-04-11T03:08:37.693Z,3.90
2018-04-11T03:11:06.074Z,3.80
2018-04-11T03:13:33.677Z,3.80
2018-04-11T03:16:01.295Z,3.80
2018-04-11T03:18:29.742Z,3.70
2018-04-11T03:20:57.297Z,3.70
2018-04-11T03:23:24.918Z,3.70
2018-04-11T03:25:52.509Z,3.70
2018-04-11T03:34:21.826Z,3.60
2018-04-11T03:36:49.413Z,3.50
2018-04-11T03:39:16.991Z,3.40
2018-04-11T03:41:44.610Z,3.30
2018-04-11T03:44:12.239Z,3.30
2018-04-11T03:46:40.576Z,3.10
2018-04-11T03:49:08.214Z,3.10
2018-04-11T03:51:35.786Z,3.10
2018-04-11T03:54:03.447Z,3.00
2018-04-11T03:56:31.019Z,3.10
2018-04-11T03:58:58.638Z,3.10
2018-04-11T04:01:26.219Z,3.10
2018-04-11T04:03:53.820Z,3.10
2018-04-11T04:06:21.486Z,3.10
2018-04-11T04:08:49.105Z,3.00
2018-04-11T04:11:16.689Z,3.10
2018-04-11T04:13:56.215Z,3.00
2018-04-11T04:16:35.787Z,3.00
2018-04-11T04:19:15.261Z,3.00
2018-04-11T04:21:46.434Z,2.90
2018-04-11T04:24:14.090Z,2.90
2018-04-11T04:29:53.193Z,2.90
2018-04-11T04:32:20.815Z,2.90
2018-04-11T04:34:48.383Z,2.90
2018-04-11T04:37:37.410Z,2.90
2018-04-11T04:40:05.026Z,3.00
2018-04-11T04:42:32.648Z,3.10
2018-04-11T04:45:00.248Z,3.10
2018-04-11T04:47:27.905Z,3.00
2018-04-11T04:49:55.506Z,3.00
2018-04-11T04:52:23.060Z,3.00
2018-04-11T04:54:50.681Z,2.90
2018-04-11T04:57:18.269Z,2.90
2018-04-11T04:59:46.674Z,3.00
2018-04-11T05:02:14.292Z,2.90
2018-04-11T05:04:41.919Z,3.00
2018-04-11T05:07:09.537Z,3.00
2018-04-11T05:09:37.949Z,3.20
2018-04-11T05:12:05.498Z,3.20
2018-04-11T05:14:33.069Z,3.20
2018-04-11T05:17:00.658Z,3.20
2018-04-11T05:19:28.302Z,3.30
2018-04-11T05:22:16.167Z,3.40
2018-04-11T05:24:43.786Z,3.80
2018-04-11T05:27:11.431Z,4.00
2018-04-11T05:29:39.040Z,4.20
2018-04-11T05:32:06.626Z,4.40
2018-04-11T05:34:35.026Z,4.40
2018-04-11T05:37:02.588Z,4.40
2018-04-11T05:39:30.268Z,4.50
2018-04-11T05:41:57.842Z,4.50
2018-04-11T05:44:25.504Z,4.60
2018-04-11T05:46:53.161Z,4.70
2018-04-11T05:49:20.832Z,4.80
2018-04-11T05:51:48.476Z,5.00
2018-04-11T05:54:16.164Z,5.10
2018-04-11T05:56:43.811Z,5.00
2018-04-11T05:59:11.400Z,5.10
2018-04-11T06:01:39.006Z,5.20
2018-04-11T06:04:06.605Z,5.50
2018-04-11T06:06:34.226Z,5.70
2018-04-11T06:09:01.817Z,5.90
2018-04-11T06:11:29.478Z,6.10
2018-04-11T06:13:57.112Z,6.40
2018-04-11T06:16:24.702Z,6.60
2018-04-11T06:18:52.308Z,6.60
2018-04-11T06:21:19.898Z,6.60
2018-04-11T06:23:47.522Z,6.80
2018-04-11T06:26:15.074Z,7.20
2018-04-11T06:28:43.453Z,7.50
2018-04-11T06:31:11.810Z,7.50
2018-04-11T06:33:40.221Z,7.60
2018-04-11T06:36:07.845Z,7.60
2018-04-11T06:38:35.553Z,7.50
2018-04-11T06:41:03.139Z,7.30
2018-04-11T06:43:32.690Z,7.50
2018-04-11T06:46:00.286Z,7.60
2018-04-11T06:48:27.906Z,7.80
2018-04-11T06:50:55.527Z,8.00
2018-04-11T06:53:23.136Z,8.10
2018-04-11T06:55:50.786Z,8.40
2018-04-11T06:58:18.451Z,8.50
2018-04-11T07:00:46.050Z,8.50
2018-04-11T07:03:14.402Z,9.00
2018-04-11T07:05:42.836Z,9.80
2018-04-11T07:08:10.455Z,9.70
2018-04-11T07:10:38.841Z,11.00
2018-04-11T07:13:06.453Z,11.00
2018-04-11T07:15:34.097Z,11.20
2018-04-11T07:18:01.739Z,11.70
2018-04-11T07:20:29.342Z,11.50
2018-04-11T07:22:56.925Z,11.80
2018-04-11T07:25:25.283Z,12.30
2018-04-11T07:27:52.912Z,12.30
2018-04-11T07:30:20.545Z,12.70
2018-04-11T07:32:48.152Z,13.50
2018-04-11T07:35:15.763Z,14.00
2018-04-11T07:37:43.371Z,14.40
2018-04-11T07:40:10.992Z,15.50
2018-04-11T07:42:38.608Z,16.50
2018-04-11T07:45:06.206Z,17.30
2018-04-11T07:47:33.820Z,18.70
2018-04-11T07:50:01.441Z,20.50
2018-04-11T07:52:29.782Z,23.40
2018-04-11T07:54:57.414Z,23.40
2018-04-11T07:57:25.069Z,24.50
2018-04-11T07:59:52.675Z,25.40
2018-04-11T08:02:21.036Z,26.30
2018-04-11T08:04:48.669Z,26.20
2018-04-11T08:07:16.303Z,25.80
2018-04-11T08:09:43.923Z,26.80
2018-04-11T08:12:12.267Z,26.40
2018-04-11T08:14:39.876Z,26.60
2018-04-11T08:17:08.266Z,28.20
2018-04-11T08:19:35.897Z,28.20
2018-04-11T08:22:03.490Z,28.10
2018-04-11T08:24:31.080Z,28.20
2018-04-11T08:26:58.800Z,29.20
2018-04-11T08:29:26.441Z,29.20
2018-04-11T08:31:54.050Z,29.30
2018-04-11T08:34:22.457Z,28.50
2018-04-11T08:36:50.070Z,28.40
2018-04-11T08:39:17.696Z,28.20
2018-04-11T08:41:45.365Z,28.30
2018-04-11T08:44:12.926Z,28.60
2018-04-11T08:46:40.496Z,29.50
2018-04-11T08:49:08.888Z,29.90
2018-04-11T08:51:37.251Z,30.30
2018-04-11T08:54:05.627Z,30.20
2018-04-11T08:56:34.006Z,30.60
2018-04-11T08:59:02.420Z,30.50
2018-04-11T09:01:30.074Z,30.50
2018-04-11T09:03:57.672Z,30.40
2018-04-11T09:06:25.263Z,31.00
2018-04-11T09:08:53.612Z,29.50
2018-04-11T09:11:21.219Z,29.50
2018-04-11T09:13:49.609Z,30.30
2018-04-11T09:16:17.225Z,30.30
2018-04-11T09:18:44.813Z,30.30
2018-04-11T09:21:18.309Z,30.20
2018-04-11T09:23:46.689Z,30.00
2018-04-11T09:26:15.037Z,28.80
2018-04-11T09:28:44.269Z,28.50
2018-04-11T09:31:12.598Z,28.00
2018-04-11T09:33:40.137Z,28.00
2018-04-11T09:36:07.756Z,28.20
2018-04-11T09:38:36.130Z,29.70
2018-04-11T09:41:03.745Z,29.60
2018-04-11T09:43:31.339Z,29.20
2018-04-11T09:45:59.110Z,28.70
2018-04-11T09:48:27.527Z,29.20
2018-04-11T09:50:55.142Z,29.10
2018-04-11T09:53:22.750Z,28.10
2018-04-11T09:55:50.373Z,28.10
2018-04-11T09:58:18.009Z,28.10
2018-04-11T10:00:51.376Z,28.10
2018-04-11T10:03:18.969Z,27.90
2018-04-11T10:05:46.587Z,27.80
2018-04-11T10:08:14.186Z,26.80
2018-04-11T10:10:41.781Z,27.20
2018-04-11T10:13:10.150Z,28.60
2018-04-11T10:15:37.781Z,28.50
2018-04-11T10:18:05.357Z,28.40
2018-04-11T10:20:32.911Z,28.50
2018-04-11T10:23:00.542Z,28.10
2018-04-11T10:25:28.166Z,27.30
2018-04-11T10:27:56.509Z,26.80
2018-04-11T10:30:24.201Z,26.80
2018-04-11T10:32:52.555Z,26.90
2018-04-11T10:35:20.119Z,26.90
2018-04-11T10:37:47.692Z,27.60
2018-04-11T10:40:16.083Z,27.10
2018-04-11T10:42:44.449Z,26.90
2018-04-11T10:45:12.006Z,26.90
2018-04-11T10:47:39.630Z,27.20
2018-04-11T10:50:07.174Z,27.30
2018-04-11T10:52:34.757Z,28.20
2018-04-11T10:55:02.323Z,27.80
2018-04-11T10:57:29.916Z,27.50
2018-04-11T10:59:58.273Z,27.60
2018-04-11T11:02:25.913Z,27.60
2018-04-11T11:04:53.486Z,27.80
2018-04-11T11:07:21.120Z,27.60
2018-04-11T11:09:48.666Z,26.60
2018-04-11T11:12:16.309Z,26.70
2018-04-11T11:14:43.936Z,26.50
2018-04-11T11:17:11.516Z,26.10
2018-04-11T11:19:51.762Z,25.60
2018-04-11T11:22:19.315Z,25.60
2018-04-11T11:24:46.939Z,26.00
2018-04-11T11:27:14.482Z,25.90
2018-04-11T11:29:42.060Z,26.60
2018-04-11T11:32:09.604Z,25.80
2018-04-11T11:34:37.167Z,25.50
2018-04-11T11:37:04.777Z,25.50
2018-04-11T11:39:33.162Z,25.40
2018-04-11T11:42:01.525Z,25.40
2018-04-11T11:44:29.900Z,24.90
2018-04-11T11:46:57.526Z,24.80
2018-04-11T11:49:25.138Z,25.10
2018-04-11T11:51:52.711Z,25.10
2018-04-11T11:54:20.274Z,25.20
2018-04-11T11:56:47.818Z,24.80
2018-04-11T11:59:16.193Z,24.00
2018-04-11T12:01:43.737Z,24.00
2018-04-11T12:04:11.313Z,23.90
2018-04-11T12:06:39.634Z,24.60
2018-04-11T12:09:07.238Z,24.60
2018-04-11T12:11:34.785Z,24.80
2018-04-11T12:14:02.393Z,24.80
2018-04-11T12:16:29.950Z,24.40
2018-04-11T12:18:57.583Z,24.20
2018-04-11T12:21:25.184Z,24.00
2018-04-11T12:23:52.791Z,24.10
2018-04-11T12:26:20.348Z,24.20
2018-04-11T12:28:47.910Z,24.00
2018-04-11T12:31:15.504Z,24.10
2018-04-11T12:33:43.867Z,24.30
2018-04-11T12:36:12.237Z,24.30
2018-04-11T12:38:40.590Z,24.10
2018-04-11T12:41:08.204Z,24.10
2018-04-11T12:43:35.838Z,24.40
2018-04-11T12:46:03.410Z,25.00
2018-04-11T12:48:31.797Z,25.70
2018-04-11T12:51:00.113Z,24.80
2018-04-11T12:53:27.731Z,24.80
2018-04-11T12:55:55.374Z,23.70
2018-04-11T12:58:23.741Z,23.30
2018-04-11T13:00:51.329Z,23.20
2018-04-11T13:03:18.929Z,23.80
2018-04-11T13:05:47.226Z,23.50
2018-04-11T13:08:14.821Z,23.40
2018-04-11T13:10:42.434Z,23.80
2018-04-11T13:13:10.021Z,23.60
2018-04-11T13:15:37.557Z,23.70
2018-04-11T13:18:05.121Z,23.50
2018-04-11T13:20:32.671Z,23.90
2018-04-11T13:23:00.293Z,24.30
2018-04-11T13:25:28.701Z,25.10
2018-04-11T13:27:56.309Z,25.00
2018-04-11T13:30:24.634Z,25.20
2018-04-11T13:32:52.282Z,25.10
2018-04-11T13:35:19.879Z,24.60
2018-04-11T13:37:47.464Z,24.50
2018-04-11T13:40:15.071Z,24.10
2018-04-11T13:42:43.595Z,23.50
2018-04-11T13:45:11.173Z,23.20
2018-04-11T13:47:39.658Z,22.70
2018-04-11T13:50:07.288Z,22.80
2018-04-11T13:52:40.315Z,22.70
2018-04-11T13:55:07.891Z,23.20
2018-04-11T13:57:35.485Z,23.50
2018-04-11T14:00:03.030Z,23.90
2018-04-11T14:02:30.672Z,24.40
2018-04-11T14:05:00.215Z,23.50
2018-04-11T14:07:27.860Z,22.10
2018-04-11T14:09:55.461Z,21.00
2018-04-11T14:12:24.025Z,20.90
2018-04-11T14:14:51.593Z,21.30
2018-04-11T14:17:19.189Z,21.80
2018-04-11T14:19:48.553Z,21.60
2018-04-11T14:22:16.087Z,21.60
2018-04-11T14:24:43.641Z,22.20
2018-04-11T14:27:11.261Z,22.70
2018-04-11T14:29:45.527Z,22.40
2018-04-11T14:32:28.331Z,22.40
2018-04-11T14:34:59.383Z,22.20
2018-04-11T14:37:26.949Z,21.60
2018-04-11T14:39:54.556Z,21.10
2018-04-11T14:42:41.981Z,20.10
2018-04-11T14:45:09.597Z,20.00
2018-04-11T14:47:37.195Z,20.60
2018-04-11T14:50:05.566Z,20.00
2018-04-11T14:52:33.925Z,19.70
2018-04-11T14:55:24.790Z,19.70
2018-04-11T14:57:52.376Z,19.30
2018-04-11T15:00:20.018Z,18.90
2018-04-11T15:02:47.623Z,18.60
2018-04-11T15:05:15.203Z,18.50
2018-04-11T15:07:42.815Z,18.90
2018-04-11T15:10:10.417Z,19.60
2018-04-11T15:12:38.757Z,20.50
2018-04-11T15:15:06.314Z,20.50
2018-04-11T15:17:33.903Z,20.30
2018-04-11T15:20:01.480Z,20.20
2018-04-11T15:22:29.083Z,20.30
2018-04-11T15:24:56.681Z,20.20
2018-04-11T15:27:24.248Z,20.30
2018-04-11T15:29:57.713Z,20.20
2018-04-11T15:32:25.283Z,20.00
2018-04-11T15:34:52.863Z,20.00
2018-04-11T15:37:20.485Z,20.00
2018-04-11T15:39:48.045Z,20.20
2018-04-11T15:42:15.652Z,19.90
2018-04-11T15:44:44.009Z,19.20
2018-04-11T15:47:11.655Z,19.20
2018-04-11T15:49:39.241Z,19.10
2018-04-11T15:52:06.879Z,19.10
2018-04-11T15:54:34.498Z,19.20
2018-04-11T15:57:02.062Z,19.30
2018-04-11T15:59:29.639Z,19.50
2018-04-11T16:01:57.210Z,20.00
2018-04-11T16:04:24.784Z,20.00
2018-04-11T16:06:52.340Z,20.20
2018-04-11T16:09:19.927Z,19.70
2018-04-11T16:11:48.316Z,19.20
2018-04-11T16:14:15.864Z,19.20
2018-04-11T16:16:45.403Z,19.10
2018-04-11T16:19:12.983Z,18.90
2018-04-11T16:21:40.576Z,18.60
2018-04-11T16:24:09.125Z,18.50
2018-04-11T16:26:36.691Z,18.40
2018-04-11T16:29:04.271Z,18.50
2018-04-11T16:31:31.872Z,18.50
2018-04-11T16:33:59.484Z,18.50
2018-04-11T16:36:27.067Z,18.30
2018-04-11T16:38:54.657Z,18.10
2018-04-11T16:41:22.205Z,17.90
2018-04-11T16:43:50.610Z,17.70
2018-04-11T16:46:18.181Z,17.60
2018-04-11T16:48:45.732Z,17.70
2018-04-11T16:51:13.346Z,17.60
2018-04-11T16:53:41.689Z,17.50
2018-04-11T16:56:09.305Z,17.50
2018-04-11T16:58:36.883Z,17.40
2018-04-11T17:01:04.524Z,17.30
2018-04-11T17:03:32.119Z,17.20
2018-04-11T17:05:59.685Z,17.00
2018-04-11T17:08:27.284Z,16.90
2018-04-11T17:10:54.904Z,16.80
2018-04-11T17:13:22.477Z,16.70
2018-04-11T17:15:50.923Z,16.60
2018-04-11T17:18:18.495Z,16.50
2018-04-11T17:20:58.026Z,16.50
2018-04-11T17:23:37.325Z,16.40
2018-04-11T17:26:17.602Z,16.20
2018-04-11T17:28:56.944Z,16.10
2018-04-11T17:31:26.166Z,16.00
2018-04-11T17:33:53.758Z,16.00
2018-04-11T17:36:21.387Z,15.90
2018-04-11T17:38:48.956Z,15.90
2018-04-11T17:41:16.555Z,15.70
2018-04-11T17:43:44.929Z,15.60
2018-04-11T17:46:15.377Z,15.50
2018-04-11T17:48:42.984Z,15.50
2018-04-11T17:51:10.594Z,15.40
2018-04-11T17:53:38.171Z,15.20
2018-04-11T17:56:05.825Z,15.20
2018-04-11T17:58:33.387Z,15.30
2018-04-11T18:01:01.030Z,15.20
2018-04-11T18:03:45.896Z,15.00
2018-04-11T18:06:14.297Z,14.90
2018-04-11T18:08:43.815Z,14.80
2018-04-11T18:11:11.406Z,14.90
2018-04-11T18:13:44.601Z,14.80
2018-04-11T18:19:13.603Z,14.60
2018-04-11T18:21:56.078Z,14.60
2018-04-11T18:27:40.937Z,14.30
2018-04-11T18:30:10.644Z,14.30
2018-04-11T18:32:39.020Z,14.10
2018-04-11T18:35:12.712Z,14.10
2018-04-11T18:37:41.626Z,14.20
2018-04-11T18:40:13.989Z,14.10
2018-04-11T18:42:41.604Z,14.10
2018-04-11T18:45:10.214Z,14.10
2018-04-11T18:50:35.641Z,13.90
2018-04-11T18:53:03.268Z,13.90
2018-04-11T18:55:30.898Z,13.90
2018-04-11T18:57:58.531Z,13.90
2018-04-11T19:00:26.499Z,13.80
2018-04-11T19:03:02.754Z,13.70
2018-04-11T19:05:36.365Z,13.60
2018-04-11T19:08:08.555Z,13.50
2018-04-11T19:10:37.793Z,13.40
2018-04-11T19:13:05.447Z,13.40
2018-04-11T19:15:33.786Z,13.10
2018-04-11T19:18:01.437Z,13.10
2018-04-11T19:20:39.005Z,13.10
2018-04-11T19:23:07.001Z,13.20
2018-04-11T19:25:37.333Z,13.10
2018-04-11T19:28:05.680Z,13.10
2018-04-11T19:30:33.282Z,13.10
2018-04-11T19:33:00.878Z,13.10
2018-04-11T19:35:28.863Z,13.00
2018-04-11T19:37:56.771Z,12.90
2018-04-11T19:40:24.453Z,12.90
2018-04-11T19:42:52.685Z,12.90
2018-04-11T19:45:25.496Z,12.80
2018-04-11T19:47:54.057Z,12.50
2018-04-11T19:50:22.455Z,12.30
2018-04-11T19:52:50.837Z,12.10
2018-04-11T19:55:18.441Z,12.10
2018-04-11T19:57:46.045Z,11.90
2018-04-11T20:00:14.433Z,11.90
2018-04-11T20:02:42.091Z,11.90
2018-04-11T20:05:09.704Z,11.80
2018-04-11T20:07:37.325Z,11.80
2018-04-11T20:10:04.960Z,11.60
2018-04-11T20:12:33.339Z,11.50
2018-04-11T20:15:01.713Z,11.40
2018-04-11T20:17:30.078Z,11.50
2018-04-11T20:19:57.669Z,11.50
2018-04-11T20:22:25.268Z,11.40
2018-04-11T20:24:52.908Z,11.20
2018-04-11T20:33:12.575Z,11.50
2018-04-11T20:35:55.056Z,11.50
2018-04-11T20:38:26.518Z,11.50
2018-04-11T20:40:55.029Z,11.60
2018-04-11T20:43:24.331Z,11.70
2018-04-11T20:45:53.658Z,11.70
2018-04-11T21:11:41.544Z,11.80
2018-04-11T21:14:09.192Z,11.60
2018-04-11T21:16:37.775Z,11.50
2018-04-11T21:19:06.195Z,11.30
2018-04-11T21:21:35.753Z,11.30
2018-04-11T21:24:04.104Z,11.10
2018-04-11T21:26:31.768Z,11.10
2018-04-11T21:28:59.467Z,11.10
2018-04-11T21:31:27.804Z,11.00
2018-04-11T21:33:56.387Z,11.00
2018-04-11T21:36:23.990Z,10.90
2018-04-11T21:38:51.578Z,10.80
2018-04-11T21:41:19.992Z,10.80
2018-04-11T21:43:47.591Z,10.80
2018-04-11T21:46:15.238Z,10.80
2018-04-11T21:48:43.617Z,10.80
2018-04-11T21:51:11.951Z,10.80
2018-04-11T21:53:39.588Z,10.70
2018-04-11T21:56:07.161Z,10.70
2018-04-11T21:58:34.802Z,10.70
2018-04-11T22:01:02.390Z,10.60
2018-04-11T22:03:30.044Z,10.70
2018-04-11T22:05:57.663Z,10.70
2018-04-11T22:08:26.050Z,10.60
2018-04-11T22:10:53.858Z,10.60
2018-04-11T22:19:29.730Z,10.60
2018-04-11T22:21:57.322Z,10.60
2018-04-11T22:24:24.977Z,10.60
2018-04-11T22:26:52.571Z,10.60
2018-04-11T22:29:21.339Z,10.80
2018-04-11T22:31:48.943Z,10.80
2018-04-11T22:34:16.531Z,10.80
2018-04-11T22:36:44.107Z,10.80
2018-04-11T22:39:11.742Z,10.90
2018-04-11T22:41:39.377Z,11.00
2018-04-11T22:44:08.205Z,11.00
2018-04-11T22:46:35.836Z,11.00
2018-04-11T22:49:03.490Z,11.00
2018-04-11T22:51:31.152Z,10.90
2018-04-11T22:53:58.813Z,10.80
2018-04-11T22:56:27.352Z,10.70
2018-04-11T22:58:54.985Z,10.80
2018-04-11T23:01:22.600Z,10.90
2018-04-11T23:03:51.014Z,10.60
2018-04-11T23:06:18.571Z,10.60
2018-04-11T23:08:46.183Z,10.50
2018-04-11T23:11:19.748Z,10.40
2018-04-11T23:13:47.343Z,10.30
2018-04-11T23:16:14.950Z,10.30
2018-04-11T23:18:42.595Z,10.20
2018-04-11T23:21:10.999Z,10.30
2018-04-11T23:23:38.576Z,10.30
2018-04-11T23:26:06.743Z,10.30
2018-04-11T23:28:34.381Z,10.40
2018-04-11T23:31:01.997Z,10.20
2018-04-11T23:33:29.644Z,10.10
2018-04-11T23:35:57.258Z,10.20
2018-04-11T23:38:24.871Z,10.10
2018-04-11T23:40:52.474Z,9.90
2018-04-11T23:43:20.057Z,9.80
2018-04-11T23:45:47.646Z,9.70
2018-04-11T23:48:15.216Z,9.60
2018-04-11T23:50:42.854Z,9.50
2018-04-11T23:53:10.607Z,9.40
2018-04-11T23:55:39.011Z,9.20
2018-04-11T23:58:06.635Z,9.20
